Time;durP1;ratioP1;P1;durP2;ratioP2;P2;SDS_P1;SDS_P2;PMS_P1;PMS_P2;Temp;Humidity;BMP_temperature;BMP_pressure;BME280_temperature;BME280_humidity;BME280_pressure;Samples;Min_cycle;Max_cycle;Signal;HPM_P1;HPM_P2
2021/04/18 00:00:07;;;;;;;13.65;6.40;;;;;;;2.98;75.40;96409.28;5075000;28;20062;-70
2021/04/18 00:02:33;;;;;;;12.43;6.47;;;;;;;2.99;75.86;96410.09;5074411;28;20131;-70
2021/04/18 00:04:58;;;;;;;15.07;6.70;;;;;;;3.12;74.84;96407.63;5093026;28;20040;-70
2021/04/18 00:07:24;;;;;;;13.13;6.68;;;;;;;3.00;75.69;96409.09;5092439;28;20099;-70
2021/04/18 00:09:50;;;;;;;16.35;7.22;;;;;;;2.97;75.63;96399.09;5092974;28;20132;-69
2021/04/18 00:12:15;;;;;;;14.90;7.40;;;;;;;2.99;75.71;96402.28;5092890;28;20090;-69
2021/04/18 00:14:42;;;;;;;14.90;6.78;;;;;;;3.07;75.47;96392.59;5092899;28;20036;-71
2021/04/18 00:17:08;;;;;;;12.30;6.55;;;;;;;3.00;75.74;96390.91;5092063;28;20129;-70
2021/04/18 00:19:34;;;;;;;12.85;6.80;;;;;;;2.92;76.38;96384.03;5074493;28;20040;-70
2021/04/18 00:22:00;;;;;;;14.90;6.72;;;;;;;2.95;76.07;96390.66;5092453;28;20085;-70
2021/04/18 00:24:26;;;;;;;14.80;7.38;;;;;;;2.83;76.60;96383.31;5091761;28;20105;-70
2021/04/18 00:26:52;;;;;;;13.40;7.13;;;;;;;2.85;76.30;96386.56;5092929;28;20040;-70
2021/04/18 00:29:17;;;;;;;12.95;6.38;;;;;;;2.92;76.24;96385.81;5092976;28;20093;-70
2021/04/18 00:31:44;;;;;;;15.52;7.45;;;;;;;2.92;76.59;96375.44;5074225;28;20039;-70
2021/04/18 00:34:10;;;;;;;16.05;7.32;;;;;;;2.94;76.46;96381.25;5074455;28;20470;-70
2021/04/18 00:36:35;;;;;;;15.88;7.45;;;;;;;2.90;76.42;96379.00;5092347;28;20044;-70
2021/04/18 00:39:01;;;;;;;14.60;7.90;;;;;;;2.84;76.39;96371.13;5092783;28;20044;-70
2021/04/18 00:41:26;;;;;;;12.48;6.43;;;;;;;2.87;76.65;96369.00;5074152;28;20521;-70
2021/04/18 00:43:52;;;;;;;13.18;6.72;;;;;;;2.85;76.93;96376.19;5092093;28;20518;-72
2021/04/18 00:46:18;;;;;;;13.65;6.82;;;;;;;2.98;76.16;96375.50;5091467;28;20550;-70
2021/04/18 00:48:45;;;;;;;13.98;7.30;;;;;;;2.97;76.17;96371.31;5092834;28;20521;-69
2021/04/18 00:51:12;;;;;;;15.50;6.93;;;;;;;2.96;76.00;96374.06;5074033;28;20040;-71
2021/04/18 00:53:38;;;;;;;14.98;7.43;;;;;;;3.09;75.79;96353.41;5096530;28;20051;-69
2021/04/18 00:56:05;;;;;;;12.55;6.32;;;;;;;3.04;76.10;96373.97;5095569;28;20043;-70
2021/04/18 00:58:32;;;;;;;14.32;7.18;;;;;;;2.87;76.36;96369.00;5096408;28;20043;-69
2021/04/18 01:00:58;;;;;;;14.80;7.30;;;;;;;2.86;76.32;96362.19;5096248;28;20444;-70
2021/04/18 01:03:23;;;;;;;14.90;7.43;;;;;;;2.87;76.19;96369.00;5077863;28;20078;-70
2021/04/18 01:05:52;;;;;;;14.48;7.53;;;;;;;2.84;76.82;96371.94;5095983;28;20059;-70
2021/04/18 01:08:20;;;;;;;12.52;7.25;;;;;;;2.88;76.64;96364.59;5096519;28;20507;-70
2021/04/18 01:10:49;;;;;;;13.70;7.45;;;;;;;2.92;76.63;96368.44;5078943;28;20020;-70
2021/04/18 01:13:14;;;;;;;13.27;7.15;;;;;;;2.94;76.41;96365.66;5097765;28;20040;-71
2021/04/18 01:15:40;;;;;;;15.68;7.78;;;;;;;2.93;76.47;96358.84;5096708;28;20042;-71
2021/04/18 01:18:06;;;;;;;11.20;5.47;;;;;;;3.05;76.28;96367.78;5096282;28;20131;-71
2021/04/18 01:20:31;;;;;;;14.23;6.63;;;;;;;2.95;76.57;96356.88;5101727;28;20033;-70
2021/04/18 01:22:58;;;;;;;13.77;7.15;;;;;;;3.04;76.48;96361.78;5116779;28;20044;-70
2021/04/18 01:25:24;;;;;;;14.93;7.05;;;;;;;3.04;76.58;96360.97;5105331;28;20048;-70
2021/04/18 01:27:50;;;;;;;12.95;6.63;;;;;;;3.09;76.04;96358.63;5078636;28;20052;-70
2021/04/18 01:30:19;;;;;;;13.57;6.90;;;;;;;3.45;75.06;96355.97;5079417;28;20055;-70
2021/04/18 01:32:47;;;;;;;13.10;6.85;;;;;;;3.56;74.45;96357.25;5096187;28;20097;-70
2021/04/18 01:35:14;;;;;;;14.90;7.13;;;;;;;3.82;73.32;96344.44;5095855;28;20036;-70
2021/04/18 01:37:40;;;;;;;14.88;7.78;;;;;;;3.36;74.07;96350.06;5097021;28;20039;-69
2021/04/18 01:40:10;;;;;;;12.88;6.03;;;;;;;3.36;75.14;96350.06;5078383;28;20047;-71
2021/04/18 01:42:38;;;;;;;12.57;6.78;;;;;;;3.39;74.98;96354.09;5077864;28;20511;-70
2021/04/18 01:45:05;;;;;;;12.75;6.53;;;;;;;3.35;74.71;96352.88;5078768;28;20039;-71
2021/04/18 01:47:31;;;;;;;12.48;6.47;;;;;;;3.24;75.54;96351.56;5096822;28;20046;-70
2021/04/18 01:50:00;;;;;;;13.48;7.25;;;;;;;3.26;75.44;96346.97;5095763;28;20402;-71
2021/04/18 01:52:28;;;;;;;12.88;6.60;;;;;;;3.65;74.35;96358.69;5077519;28;20044;-71
2021/04/18 01:54:53;;;;;;;;;;;;;;;3.39;74.88;96348.88;5095940;28;20040;-71
2021/04/18 01:57:20;;;;;;;12.75;6.28;;;;;;;3.40;75.24;96359.13;5077081;28;19923;-70
2021/04/18 01:59:46;;;;;;;11.77;5.82;;;;;;;3.61;74.23;96353.09;5076672;28;20067;-70
2021/04/18 02:02:12;;;;;;;14.05;7.10;;;;;;;3.62;74.04;96348.69;5076322;28;20043;-70
2021/04/18 02:04:38;;;;;;;11.07;6.18;;;;;;;3.34;74.78;96359.88;5095027;28;20048;-70
2021/04/18 02:07:05;;;;;;;12.55;6.85;;;;;;;3.08;76.11;96344.03;5079041;28;20494;-70
2021/04/18 02:09:33;;;;;;;13.25;7.43;;;;;;;3.03;76.18;96348.97;5099688;28;20163;-70
2021/04/18 02:11:59;;;;;;;13.18;7.18;;;;;;;3.00;77.22;96357.13;5081356;28;20040;-70
2021/04/18 02:14:25;;;;;;;15.18;7.80;;;;;;;2.97;76.92;96352.31;5082941;28;20143;-70
2021/04/18 02:16:51;;;;;;;13.45;7.20;;;;;;;3.01;77.21;96350.94;5080986;28;20044;-69
2021/04/18 02:19:17;;;;;;;13.45;6.90;;;;;;;3.27;76.24;96348.59;5100092;28;20043;-70
2021/04/18 02:21:43;;;;;;;14.02;7.75;;;;;;;3.10;76.24;96349.81;5095889;28;20410;-70
2021/04/18 02:24:09;;;;;;;15.88;7.40;;;;;;;3.05;76.10;96352.19;5095631;28;20528;-71
2021/04/18 02:26:38;;;;;;;13.48;6.93;;;;;;;3.13;77.14;96344.28;5076810;28;20130;-70
2021/04/18 02:29:04;;;;;;;13.07;6.70;;;;;;;3.41;75.23;96342.53;5076791;28;20050;-70
2021/04/18 02:31:30;;;;;;;12.55;7.10;;;;;;;3.25;75.54;96347.19;5076254;28;20067;-70
2021/04/18 02:33:56;;;;;;;14.65;7.68;;;;;;;3.21;75.68;96335.53;5094839;28;20155;-70
2021/04/18 02:36:22;;;;;;;15.82;8.35;;;;;;;3.01;77.08;96337.94;5076319;28;20151;-70
2021/04/18 02:38:48;;;;;;;14.32;8.73;;;;;;;3.07;77.30;96329.44;5095031;28;20506;-70
2021/04/18 02:41:13;;;;;;;13.80;7.65;;;;;;;3.06;77.22;96343.38;5094301;28;20117;-69
2021/04/18 02:43:39;;;;;;;16.30;8.38;;;;;;;3.00;77.72;96342.34;5075873;28;20048;-69
2021/04/18 02:46:05;;;;;;;13.65;7.93;;;;;;;3.02;77.33;96342.16;5094475;28;20096;-70
2021/04/18 02:48:31;;;;;;;16.10;9.23;;;;;;;3.02;77.43;96342.97;5094458;28;20055;-69
2021/04/18 02:50:57;;;;;;;15.90;8.77;;;;;;;2.87;77.70;96344.81;5094191;28;20085;-69
2021/04/18 02:53:23;;;;;;;15.38;8.52;;;;;;;2.87;77.90;96348.22;5094360;28;20040;-70
2021/04/18 02:55:49;;;;;;;13.45;7.75;;;;;;;2.90;78.17;96345.22;5093832;28;20047;-70
2021/04/18 02:58:17;;;;;;;15.77;8.02;;;;;;;2.89;78.31;96337.63;5093451;28;20040;-70
2021/04/18 03:00:43;;;;;;;15.90;9.13;;;;;;;2.91;78.08;96335.66;5075846;28;20222;-70
2021/04/18 03:03:11;;;;;;;17.33;8.95;;;;;;;2.97;77.91;96339.31;5093755;28;20075;-71
2021/04/18 03:05:37;;;;;;;15.55;8.35;;;;;;;2.86;78.92;96338.00;5075949;28;20047;-70
2021/04/18 03:08:04;;;;;;;17.05;8.77;;;;;;;2.83;78.57;96330.56;5094298;28;20389;-70
2021/04/18 03:10:32;;;;;;;18.20;9.80;;;;;;;2.88;79.08;96336.03;5093941;28;20526;-71
2021/04/18 03:12:58;;;;;;;16.48;8.88;;;;;;;2.86;78.51;96332.81;5093781;28;20119;-71
2021/04/18 03:15:24;;;;;;;17.23;9.30;;;;;;;2.82;79.57;96332.38;5075023;28;20472;-70
2021/04/18 03:17:50;;;;;;;17.73;9.85;;;;;;;2.86;78.96;96336.22;5094142;28;20069;-70
2021/04/18 03:20:16;;;;;;;15.90;9.30;;;;;;;2.99;78.54;96339.94;5093649;28;20139;-70
2021/04/18 03:22:45;;;;;;;16.45;9.55;;;;;;;2.85;79.15;96336.38;5093537;28;20495;-71
2021/04/18 03:25:12;;;;;;;17.77;9.32;;;;;;;3.12;77.79;96338.28;5093571;28;20481;-70
2021/04/18 03:27:38;;;;;;;17.55;9.38;;;;;;;3.39;77.07;96339.31;5095549;28;20036;-69
2021/04/18 03:30:05;;;;;;;18.65;9.10;;;;;;;3.16;77.73;96342.09;5103908;28;20041;-71
2021/04/18 03:32:31;;;;;;;19.73;8.57;;;;;;;3.13;78.34;96336.47;5103318;28;20071;-70
2021/04/18 03:34:59;;;;;;;15.93;8.35;;;;;;;3.14;78.10;96335.47;5101037;28;20044;-69
2021/04/18 03:37:25;;;;;;;14.50;8.63;;;;;;;3.12;77.97;96340.88;5097008;28;20036;-70
2021/04/18 03:39:51;;;;;;;17.08;9.40;;;;;;;2.98;78.75;96340.91;5076270;28;20085;-70
2021/04/18 03:42:17;;;;;;;15.90;8.95;;;;;;;3.14;77.49;96338.88;5094987;28;20561;-71
2021/04/18 03:44:42;;;;;;;15.23;8.73;;;;;;;3.16;77.75;96343.88;5093499;28;20043;-71
2021/04/18 03:47:08;;;;;;;16.02;8.90;;;;;;;3.12;79.34;96332.25;5093776;28;20120;-71
2021/04/18 03:49:34;;;;;;;15.05;8.27;;;;;;;3.14;78.36;96340.69;5093349;28;20089;-71
2021/04/18 03:52:00;;;;;;;16.20;8.98;;;;;;;3.08;79.36;96334.44;5076026;28;20036;-70
2021/04/18 03:54:26;;;;;;;15.40;8.80;;;;;;;3.20;79.26;96337.34;5106599;28;20047;-71
2021/04/18 03:56:52;;;;;;;17.17;9.02;;;;;;;2.98;79.73;96344.31;5112648;28;20095;-70
2021/04/18 03:59:18;;;;;;;19.42;10.35;;;;;;;2.87;81.27;96340.41;5102330;28;20123;-71
2021/04/18 04:01:45;;;;;;;18.20;10.00;;;;;;;2.75;81.60;96330.69;5093814;28;20119;-70
2021/04/18 04:04:13;;;;;;;19.45;10.20;;;;;;;2.78;81.88;96344.09;5074578;28;20040;-71
2021/04/18 04:06:39;;;;;;;18.88;10.23;;;;;;;2.62;81.90;96341.72;5092531;28;20070;-71
2021/04/18 04:09:05;;;;;;;19.75;11.43;;;;;;;2.57;82.99;96339.66;5093466;28;20020;-72
2021/04/18 04:11:31;;;;;;;21.17;11.15;;;;;;;2.49;83.55;96336.38;5092818;28;20059;-71
2021/04/18 04:13:57;;;;;;;17.65;9.57;;;;;;;2.69;84.13;96337.44;5074380;28;20040;-71
2021/04/18 04:16:23;;;;;;;20.10;10.52;;;;;;;2.60;82.43;96344.50;5092253;28;20411;-71
2021/04/18 04:18:49;;;;;;;21.42;11.68;;;;;;;2.58;83.36;96346.50;5093259;28;20101;-72
2021/04/18 04:21:14;;;;;;;20.92;11.68;;;;;;;2.58;83.63;96341.31;5074895;28;20066;-71
2021/04/18 04:23:40;;;;;;;21.35;10.48;;;;;;;2.56;82.86;96340.66;5074511;28;20406;-71
2021/04/18 04:26:06;;;;;;;21.00;11.57;;;;;;;2.62;83.16;96341.72;5093695;28;20101;-70
2021/04/18 04:28:32;;;;;;;21.10;11.23;;;;;;;2.72;83.97;96337.03;5095871;28;20040;-71
2021/04/18 04:30:59;;;;;;;26.05;12.35;;;;;;;2.71;83.03;96335.44;5074216;28;20040;-72
2021/04/18 04:33:25;;;;;;;22.83;11.98;;;;;;;2.61;83.27;96347.91;5092633;28;20058;-71
2021/04/18 04:35:51;;;;;;;19.60;10.35;;;;;;;2.51;83.01;96344.78;5092188;28;20567;-70
2021/04/18 04:38:19;;;;;;;21.45;11.50;;;;;;;2.50;84.18;96338.00;5074283;28;20078;-71
2021/04/18 04:40:47;;;;;;;20.23;11.15;;;;;;;2.59;83.54;96344.69;5074184;28;20044;-71
2021/04/18 04:43:13;;;;;;;;;;;;;;;2.63;84.45;96345.94;5092979;28;20131;-71
2021/04/18 04:45:38;;;;;;;20.95;11.55;;;;;;;2.58;83.64;96345.66;5110580;22;20002;-65
2021/04/18 04:48:06;;;;;;;22.40;12.20;;;;;;;2.54;83.43;96352.22;5091894;28;20120;-67
2021/04/18 04:50:31;;;;;;;21.37;12.17;;;;;;;2.41;84.34;96350.25;5091453;28;20513;-67
2021/04/18 04:52:57;;;;;;;21.55;11.02;;;;;;;2.66;83.56;96352.56;5091828;28;20036;-66
2021/04/18 04:55:23;;;;;;;22.15;11.35;;;;;;;2.76;82.92;96359.06;5091829;28;20422;-67
2021/04/18 04:57:49;;;;;;;19.73;10.20;;;;;;;2.62;83.45;96349.50;5091805;28;20568;-66
2021/04/18 05:00:15;;;;;;;21.05;11.07;;;;;;;2.71;82.79;96356.22;5091433;28;20048;-67
2021/04/18 05:02:43;;;;;;;20.23;10.25;;;;;;;2.84;82.03;96353.75;5091691;28;20047;-67
2021/04/18 05:05:11;;;;;;;21.40;11.00;;;;;;;2.62;83.86;96359.91;5091374;28;20111;-67
2021/04/18 05:07:36;;;;;;;21.48;11.50;;;;;;;2.59;84.35;96360.28;5091348;28;20040;-66
2021/04/18 05:10:03;;;;;;;20.40;11.27;;;;;;;2.66;83.79;96358.56;5091032;28;20351;-67
2021/04/18 05:12:29;;;;;;;21.33;11.82;;;;;;;2.61;84.42;96359.09;5072865;28;20036;-67
2021/04/18 05:14:54;;;;;;;21.20;11.40;;;;;;;2.64;83.95;96363.13;5091243;28;20272;-67
2021/04/18 05:17:20;;;;;;;21.27;12.25;;;;;;;2.59;83.41;96366.28;5091232;28;20040;-67
2021/04/18 05:19:48;;;;;;;21.35;11.68;;;;;;;2.56;83.94;96363.22;5090862;28;20101;-67
2021/04/18 05:22:14;;;;;;;22.35;11.52;;;;;;;2.58;84.89;96366.44;5073299;28;20070;-66
2021/04/18 05:24:40;;;;;;;19.52;10.52;;;;;;;2.96;82.40;96363.66;5091812;28;20036;-67
2021/04/18 05:27:06;;;;;;;22.45;12.27;;;;;;;2.98;82.73;96372.91;5073411;28;20308;-67
2021/04/18 05:29:32;;;;;;;21.13;11.93;;;;;;;2.93;82.89;96369.25;5089549;28;20074;-66
2021/04/18 05:32:00;;;;;;;21.63;12.40;;;;;;;2.93;83.35;96371.84;5091314;28;20064;-67
2021/04/18 05:34:25;;;;;;;22.02;11.90;;;;;;;2.87;82.85;96371.59;5091682;28;20068;-66
2021/04/18 05:36:51;;;;;;;21.95;12.25;;;;;;;3.03;82.14;96375.75;5091477;28;20074;-66
2021/04/18 05:39:17;;;;;;;17.42;9.48;;;;;;;2.93;82.83;96379.63;5075542;28;20149;-67
2021/04/18 05:41:43;;;;;;;21.38;10.63;;;;;;;3.08;82.43;96377.81;5095802;28;20042;-66
2021/04/18 05:44:13;;;;;;;20.95;11.88;;;;;;;3.00;82.59;96380.50;5097176;28;20432;-66
2021/04/18 05:46:39;;;;;;;20.77;11.25;;;;;;;2.96;83.00;96390.47;5098828;28;20044;-66
2021/04/18 05:49:07;;;;;;;20.25;10.98;;;;;;;3.11;81.03;96383.41;5104042;28;20100;-66
2021/04/18 05:51:33;;;;;;;19.70;11.57;;;;;;;2.86;81.63;96389.97;5104242;28;20039;-67
2021/04/18 05:53:58;;;;;;;25.50;13.00;;;;;;;2.76;84.43;96385.06;5086333;28;20120;-67
2021/04/18 05:56:25;;;;;;;23.85;12.45;;;;;;;2.82;83.66;96388.72;5103096;28;20048;-67
2021/04/18 05:58:50;;;;;;;22.30;12.15;;;;;;;3.10;82.68;96383.63;5100368;28;20075;-66
2021/04/18 06:01:22;;;;;;;22.48;12.40;;;;;;;3.14;82.97;96390.06;5098727;28;20051;-68
2021/04/18 06:03:50;;;;;;;22.00;12.68;;;;;;;3.00;83.13;96385.69;5100997;28;20040;-67
2021/04/18 06:06:15;;;;;;;23.35;12.10;;;;;;;2.99;82.93;96389.28;5097829;28;20058;-67
2021/04/18 06:08:41;;;;;;;20.52;11.13;;;;;;;3.29;81.74;96390.81;5094920;28;20040;-67
2021/04/18 06:11:07;;;;;;;22.17;12.45;;;;;;;3.45;82.85;96389.78;5093660;28;20141;-67
2021/04/18 06:13:34;;;;;;;20.48;11.10;;;;;;;3.27;81.85;96386.78;5075986;28;20126;-67
2021/04/18 06:15:59;;;;;;;25.08;13.45;;;;;;;3.15;83.36;96387.28;5093657;28;20111;-66
2021/04/18 06:18:25;;;;;;;22.73;12.57;;;;;;;3.18;83.01;96395.72;5095219;28;20051;-67
2021/04/18 06:20:51;;;;;;;25.25;13.30;;;;;;;3.36;82.88;96388.28;5076982;28;20101;-66
2021/04/18 06:23:16;;;;;;;26.80;13.68;;;;;;;3.28;82.66;96391.81;5095244;28;20513;-67
2021/04/18 06:25:42;;;;;;;24.48;13.13;;;;;;;3.41;82.80;96393.72;5076781;28;20036;-68
2021/04/18 06:28:10;;;;;;;23.20;12.80;;;;;;;3.24;82.49;96395.78;5094445;28;20048;-67
2021/04/18 06:30:38;;;;;;;24.20;12.40;;;;;;;3.27;81.76;96392.78;5093251;28;20097;-67
2021/04/18 06:33:04;;;;;;;23.45;12.18;;;;;;;3.34;81.27;96382.47;5075281;28;20437;-67
2021/04/18 06:35:30;;;;;;;24.83;11.93;;;;;;;3.40;81.36;96395.53;5095103;28;20044;-67
2021/04/18 06:37:56;;;;;;;24.05;13.15;;;;;;;3.30;81.21;96391.63;5105467;28;20066;-67
2021/04/18 06:40:22;;;;;;;25.38;13.27;;;;;;;3.40;82.43;96387.72;5107897;28;20050;-68
2021/04/18 06:42:48;;;;;;;22.70;11.85;;;;;;;3.29;81.38;96397.81;5095836;28;20044;-68
2021/04/18 06:45:14;;;;;;;26.65;13.90;;;;;;;3.37;81.83;96392.47;5094005;28;20097;-66
2021/04/18 06:47:41;;;;;;;23.33;11.75;;;;;;;3.35;81.73;96392.69;5093510;28;20044;-67
2021/04/18 06:50:11;;;;;;;24.67;13.65;;;;;;;3.52;82.75;96395.03;5093761;28;20076;-67
2021/04/18 06:52:40;;;;;;;22.27;11.65;;;;;;;3.50;80.92;96399.59;5093334;28;20040;-67
2021/04/18 06:55:07;;;;;;;23.05;11.88;;;;;;;3.58;81.83;96391.66;5093812;28;20093;-65
2021/04/18 06:57:33;;;;;;;23.60;12.10;;;;;;;3.72;80.28;96385.59;5093341;28;20162;-66
2021/04/18 06:59:59;;;;;;;23.48;12.05;;;;;;;3.77;80.80;96393.66;5093032;28;20052;-67
2021/04/18 07:02:26;;;;;;;22.75;11.38;;;;;;;3.75;80.66;96400.81;5092976;28;20116;-68
2021/04/18 07:04:58;;;;;;;25.42;12.00;;;;;;;3.74;80.39;96399.22;5092899;28;20032;-67
2021/04/18 07:07:28;;;;;;;20.48;10.70;;;;;;;3.74;80.46;96391.41;5092922;28;20097;-68
2021/04/18 07:09:54;;;;;;;23.60;11.75;;;;;;;3.78;78.79;96399.66;5092765;28;20044;-68
2021/04/18 07:12:25;;;;;;;22.98;12.80;;;;;;;3.88;79.55;96393.13;5092751;28;20047;-67
2021/04/18 07:14:51;;;;;;;21.75;12.02;;;;;;;4.04;77.61;96373.81;5092758;28;20048;-67
2021/04/18 07:17:16;;;;;;;17.63;9.48;;;;;;;4.29;77.82;96388.97;5092768;28;20657;-67
2021/04/18 07:19:44;;;;;;;23.20;11.35;;;;;;;4.54;78.05;96384.13;5092829;28;20044;-69
2021/04/18 07:22:11;;;;;;;22.07;10.90;;;;;;;5.04;78.46;96384.69;5094136;28;20035;-67
2021/04/18 07:24:50;;;;;;;24.60;10.60;;;;;;;4.99;75.93;96386.09;5092969;28;20096;-67
2021/04/18 07:27:17;;;;;;;19.60;9.60;;;;;;;4.82;76.35;96376.22;5074071;28;20048;-67
2021/04/18 07:29:51;;;;;;;21.98;10.70;;;;;;;4.77;78.29;96382.00;5092274;28;20521;-65
2021/04/18 07:32:18;;;;;;;18.23;10.00;;;;;;;4.55;78.67;96381.31;5092583;28;20290;-67
2021/04/18 07:34:43;;;;;;;19.40;10.10;;;;;;;4.64;78.60;96379.34;5092386;28;20040;-67
2021/04/18 07:37:12;;;;;;;20.35;11.05;;;;;;;4.87;80.67;96381.63;5092498;28;20067;-69
2021/04/18 07:39:47;;;;;;;21.27;10.82;;;;;;;5.34;78.67;96379.97;5091966;28;20155;-67
2021/04/18 07:42:33;;;;;;;18.80;9.70;;;;;;;5.77;75.63;96385.63;5073836;28;20060;-68
2021/04/18 07:45:01;;;;;;;17.67;9.73;;;;;;;5.47;77.14;96386.00;5091953;28;20044;-68
2021/04/18 07:47:27;;;;;;;20.75;10.02;;;;;;;4.96;76.69;96388.28;5093202;28;20132;-68
2021/04/18 07:49:54;;;;;;;22.85;11.30;;;;;;;4.86;77.99;96380.84;5074444;28;20041;-68
2021/04/18 07:52:25;;;;;;;18.42;10.07;;;;;;;4.63;76.18;96388.16;5074513;28;20079;-69
2021/04/18 07:54:52;;;;;;;20.27;10.90;;;;;;;4.51;77.72;96379.28;5097319;28;20055;-69
2021/04/18 07:57:19;;;;;;;19.63;9.93;;;;;;;4.56;78.34;96382.09;5099883;28;20491;-68
2021/04/18 07:59:47;;;;;;;20.63;11.07;;;;;;;4.51;78.04;96380.06;5100153;28;20039;-68
2021/04/18 08:02:16;;;;;;;;;;;;;;;4.42;78.21;96374.25;5096321;28;20445;-68
2021/04/18 08:04:43;;;;;;;18.48;9.85;;;;;;;4.51;78.38;96377.47;5091991;28;19920;-69
2021/04/18 08:07:11;;;;;;;21.00;10.30;;;;;;;4.62;78.12;96381.31;5092079;28;20044;-69
2021/04/18 08:09:38;;;;;;;21.00;11.45;;;;;;;4.62;79.24;96374.31;5092743;28;20047;-69
2021/04/18 08:12:11;;;;;;;17.00;9.63;;;;;;;4.55;78.38;96375.28;5092899;28;20043;-70
2021/04/18 08:14:42;;;;;;;21.88;10.35;;;;;;;4.53;79.19;96379.91;5094811;28;20047;-69
2021/04/18 08:17:09;;;;;;;20.17;10.85;;;;;;;4.47;79.52;96374.47;5094349;28;20051;-68
2021/04/18 08:19:36;;;;;;;20.45;10.88;;;;;;;4.55;78.81;96375.28;5074839;28;20044;-69
2021/04/18 08:22:04;;;;;;;27.35;13.45;;;;;;;4.51;82.69;96379.28;5092675;28;20036;-69
2021/04/18 08:24:39;;;;;;;18.90;10.05;;;;;;;4.50;79.53;96372.47;5093396;28;20067;-68
2021/04/18 08:27:07;;;;;;;17.42;9.27;;;;;;;4.51;77.97;96381.88;5074232;28;20467;-69
2021/04/18 08:29:33;;;;;;;;;;;;;;;4.60;79.44;96380.72;5092459;28;20510;-68
2021/04/18 08:32:10;;;;;;;19.65;10.13;;;;;;;4.69;78.75;96387.41;5092213;28;19965;-70
2021/04/18 08:34:43;;;;;;;18.23;10.05;;;;;;;4.65;77.00;96388.78;5092012;28;20048;-69
2021/04/18 08:37:18;;;;;;;21.20;10.68;;;;;;;4.80;79.24;96388.63;5094922;28;20059;-69
2021/04/18 08:39:43;;;;;;;20.73;9.75;;;;;;;4.67;78.29;96378.94;5094132;28;20064;-68
2021/04/18 08:42:24;;;;;;;18.95;10.38;;;;;;;4.76;83.12;96390.03;5075183;28;20032;-68
2021/04/18 08:44:52;;;;;;;18.98;9.45;;;;;;;4.74;78.20;96387.63;5092103;28;20063;-69
2021/04/18 08:47:21;;;;;;;19.45;10.02;;;;;;;4.56;78.52;96387.31;5074576;28;20559;-69
2021/04/18 08:49:50;;;;;;;20.02;9.27;;;;;;;4.90;76.97;96384.66;5073445;28;20036;-70
2021/04/18 08:52:21;;;;;;;19.75;8.75;;;;;;;4.94;78.67;96396.28;5091748;28;20050;-69
2021/04/18 08:54:48;;;;;;;18.33;9.15;;;;;;;5.03;75.70;96398.75;5091662;28;20097;-69
2021/04/18 08:57:19;;;;;;;18.80;9.55;;;;;;;4.91;78.28;96390.69;5073738;28;20499;-68
2021/04/18 08:59:49;;;;;;;19.08;10.05;;;;;;;5.02;77.40;96389.31;5091597;28;20526;-68
2021/04/18 09:02:15;;;;;;;16.77;9.13;;;;;;;5.00;76.79;96387.72;5091683;28;20096;-68
2021/04/18 09:04:43;;;;;;;19.75;10.27;;;;;;;5.07;78.33;96389.53;5091300;28;20051;-69
2021/04/18 09:07:14;;;;;;;;;;;;;;;4.96;77.85;96394.31;5091945;28;20379;-68
2021/04/18 09:09:40;;;;;;;15.07;8.57;;;;;;;4.90;76.62;96397.69;5073649;28;19920;-68
2021/04/18 09:12:06;;;;;;;18.50;8.65;;;;;;;4.81;75.60;96391.03;5073504;28;20452;-69
2021/04/18 09:14:35;;;;;;;19.38;10.20;;;;;;;4.83;77.07;96396.06;5076636;28;20044;-68
2021/04/18 09:17:09;;;;;;;18.88;9.20;;;;;;;4.68;75.59;96390.97;5095205;28;20040;-68
2021/04/18 09:19:35;;;;;;;19.30;10.20;;;;;;;4.82;78.98;96397.84;5094954;28;20044;-68
2021/04/18 09:22:08;;;;;;;16.25;9.25;;;;;;;4.87;76.08;96390.25;5076845;28;20402;-68
2021/04/18 09:24:40;;;;;;;19.55;9.35;;;;;;;5.05;76.70;96386.28;5094969;28;20403;-69
2021/04/18 09:27:10;;;;;;;19.17;9.43;;;;;;;5.20;75.25;96389.56;5094875;28;20067;-68
2021/04/18 09:29:43;;;;;;;19.27;9.60;;;;;;;5.34;75.25;96398.22;5094278;28;20452;-69
2021/04/18 09:32:11;;;;;;;16.45;8.73;;;;;;;5.28;75.69;96388.59;5076424;28;20123;-67
2021/04/18 09:34:38;;;;;;;18.95;9.93;;;;;;;5.10;75.76;96396.94;5094582;28;20054;-68
2021/04/18 09:37:11;;;;;;;18.00;9.43;;;;;;;5.21;75.67;96397.16;5094774;28;20612;-69
2021/04/18 09:39:37;;;;;;;18.95;9.85;;;;;;;5.10;75.02;96394.34;5075862;28;20127;-68
2021/04/18 09:42:05;;;;;;;17.88;8.65;;;;;;;5.02;74.28;96395.34;5094471;28;20437;-67
2021/04/18 09:44:33;;;;;;;17.45;8.82;;;;;;;5.31;74.51;96398.59;5094134;28;20059;-69
2021/04/18 09:47:07;;;;;;;20.65;10.15;;;;;;;5.22;75.42;96398.00;5094078;28;20098;-69
2021/04/18 09:49:47;;;;;;;16.65;8.70;;;;;;;5.21;73.39;96396.38;5093938;28;20047;-68
2021/04/18 09:52:29;;;;;;;19.95;9.73;;;;;;;5.71;72.09;96397.66;5094660;28;20054;-69
2021/04/18 09:55:16;;;;;;;19.95;9.90;;;;;;;5.67;72.45;96400.88;5091614;28;20106;-69
2021/04/18 09:57:45;;;;;;;19.98;10.40;;;;;;;5.78;71.38;96400.28;5075327;28;20048;-69
2021/04/18 10:00:17;;;;;;;18.77;9.48;;;;;;;5.86;69.83;96407.88;5093620;28;20467;-69
2021/04/18 10:03:00;;;;;;;18.15;9.57;;;;;;;6.23;70.67;96400.47;5094282;28;20271;-69
2021/04/18 10:05:30;;;;;;;18.17;9.93;;;;;;;6.57;70.63;96402.03;5093907;28;20510;-67
2021/04/18 10:08:18;;;;;;;17.40;9.88;;;;;;;6.49;68.36;96400.41;5093402;28;20064;-68
2021/04/18 10:10:45;;;;;;;17.65;9.45;;;;;;;6.56;68.06;96400.41;5093567;28;20381;-68
2021/04/18 10:13:11;;;;;;;19.20;9.10;;;;;;;6.47;67.63;96396.41;5093500;28;20474;-68
2021/04/18 10:15:50;;;;;;;17.65;8.48;;;;;;;6.12;67.55;96394.06;5096034;28;20082;-69
2021/04/18 10:18:18;;;;;;;18.63;8.93;;;;;;;6.19;67.06;96396.66;5074971;28;20051;-69
2021/04/18 10:20:44;;;;;;;16.88;8.70;;;;;;;6.08;67.27;96389.44;5075329;28;20044;-70
2021/04/18 10:23:10;;;;;;;18.85;9.27;;;;;;;6.10;68.45;96397.88;5093512;28;20097;-69
2021/04/18 10:25:38;;;;;;;17.67;9.13;;;;;;;6.25;67.47;96395.88;5093109;28;20044;-69
2021/04/18 10:28:05;;;;;;;19.73;9.35;;;;;;;6.40;66.13;96396.41;5074978;28;20047;-69
2021/04/18 10:30:31;;;;;;;19.13;9.07;;;;;;;6.49;65.43;96391.78;5093223;28;20044;-69
2021/04/18 10:32:57;;;;;;;19.05;8.63;;;;;;;6.59;66.05;96394.78;5093569;28;20078;-68
2021/04/18 10:35:26;;;;;;;18.10;8.73;;;;;;;6.75;66.67;96383.06;5093443;28;20040;-68
2021/04/18 10:37:52;;;;;;;20.85;9.48;;;;;;;6.92;63.76;96394.66;5093055;28;20036;-67
2021/04/18 10:40:22;;;;;;;19.05;8.35;;;;;;;6.95;63.76;96388.22;5093033;28;20100;-68
2021/04/18 10:42:48;;;;;;;20.40;9.43;;;;;;;7.07;64.24;96392.56;5093039;28;20519;-67
2021/04/18 10:45:15;;;;;;;17.27;8.60;;;;;;;7.02;63.57;96395.00;5092867;28;20143;-68
2021/04/18 10:47:41;;;;;;;16.67;8.80;;;;;;;6.89;63.67;96395.06;5092961;28;20078;-68
2021/04/18 10:50:07;;;;;;;16.95;8.90;;;;;;;6.74;63.59;96387.50;5092854;28;20067;-68
2021/04/18 10:52:34;;;;;;;18.60;8.68;;;;;;;6.53;64.42;96385.94;5075356;28;20379;-68
2021/04/18 10:55:02;;;;;;;16.30;7.53;;;;;;;6.75;63.74;96378.63;5094006;28;20332;-68
2021/04/18 10:57:29;;;;;;;16.70;8.05;;;;;;;6.46;63.94;96384.38;5094124;28;20048;-68
2021/04/18 10:59:55;;;;;;;16.33;8.23;;;;;;;6.72;63.19;96383.47;5093180;28;20556;-68
2021/04/18 11:02:21;;;;;;;17.35;7.80;;;;;;;6.44;64.51;96381.13;5074694;28;20036;-69
2021/04/18 11:04:47;;;;;;;18.15;8.20;;;;;;;6.57;63.16;96375.88;5092875;28;20184;-68
2021/04/18 11:07:12;;;;;;;16.58;8.80;;;;;;;6.30;65.15;96383.00;5092736;28;20044;-68
2021/04/18 11:09:39;;;;;;;19.42;8.15;;;;;;;6.15;64.75;96378.00;5074564;28;20089;-68
2021/04/18 11:12:13;;;;;;;16.45;7.43;;;;;;;5.96;65.94;96386.63;5092925;28;20040;-68
2021/04/18 11:14:39;;;;;;;17.33;8.60;;;;;;;6.01;64.33;96382.41;5093583;28;20048;-68
2021/04/18 11:17:06;;;;;;;17.85;7.95;;;;;;;6.16;65.63;96384.00;5093117;28;20044;-69
2021/04/18 11:19:31;;;;;;;17.88;7.90;;;;;;;6.62;63.30;96383.09;5092980;28;20051;-68
2021/04/18 11:22:00;;;;;;;15.63;7.47;;;;;;;6.57;63.64;96379.31;5094261;28;20492;-68
2021/04/18 11:24:26;;;;;;;16.63;9.05;;;;;;;6.14;64.52;96383.44;5074105;28;20075;-68
2021/04/18 11:26:52;;;;;;;16.63;8.55;;;;;;;6.26;65.23;96374.75;5074138;28;20067;-68
2021/04/18 11:29:18;;;;;;;16.70;8.00;;;;;;;6.68;63.81;96377.06;5092229;28;20122;-67
2021/04/18 11:31:44;;;;;;;15.50;7.53;;;;;;;6.66;62.46;96379.06;5073983;28;20127;-68